sensor_id;sensor_type;location;lat;lon;timestamp;pressure;altitude;pressure_sealevel;temperature;humidity
21357;BME280;10836;53.068;18.234;2023-03-14T00:00:14;98949.75;;;10.66;100.00
21357;BME280;10836;53.068;18.234;2023-03-14T00:03:01;98932.09;;;10.63;100.00
21357;BME280;10836;53.068;18.234;2023-03-14T00:05:28;98939.00;;;10.61;100.00
21357;BME280;10836;53.068;18.234;2023-03-14T00:07:55;98935.44;;;10.60;100.00
21357;BME280;10836;53.068;18.234;2023-03-14T00:10:22;98939.75;;;10.53;100.00
21357;BME280;10836;53.068;18.234;2023-03-14T00:12:49;98944.75;;;10.59;100.00
21357;BME280;10836;53.068;18.234;2023-03-14T00:15:16;98947.19;;;10.61;100.00
21357;BME280;10836;53.068;18.234;2023-03-14T00:17:43;98950.22;;;10.59;100.00
21357;BME280;10836;53.068;18.234;2023-03-14T00:20:10;98950.22;;;10.59;100.00
21357;BME280;10836;53.068;18.234;2023-03-14T00:22:38;98956.03;;;10.66;100.00
21357;BME280;10836;53.068;18.234;2023-03-14T00:25:07;98939.66;;;10.66;100.00
21357;BME280;10836;53.068;18.234;2023-03-14T00:27:34;98934.81;;;10.63;100.00
21357;BME280;10836;53.068;18.234;2023-03-14T00:30:01;98938.84;;;10.66;100.00
21357;BME280;10836;53.068;18.234;2023-03-14T00:32:28;98939.66;;;10.66;100.00
21357;BME280;10836;53.068;18.234;2023-03-14T00:34:55;98936.13;;;10.66;100.00
21357;BME280;10836;53.068;18.234;2023-03-14T00:37:22;98949.75;;;10.66;100.00
21357;BME280;10836;53.068;18.234;2023-03-14T00:39:51;98953.97;;;10.72;100.00
21357;BME280;10836;53.068;18.234;2023-03-14T00:42:18;98956.03;;;10.66;100.00
21357;BME280;10836;53.068;18.234;2023-03-14T00:44:45;98939.66;;;10.66;100.00
21357;BME280;10836;53.068;18.234;2023-03-14T00:47:12;98942.88;;;10.69;100.00
21357;BME280;10836;53.068;18.234;2023-03-14T00:49:41;98933.06;;;10.68;100.00
21357;BME280;10836;53.068;18.234;2023-03-14T00:52:10;98931.78;;;10.65;100.00
21357;BME280;10836;53.068;18.234;2023-03-14T00:54:36;98920.06;;;10.64;100.00
21357;BME280;10836;53.068;18.234;2023-03-14T00:57:04;98918.44;;;10.63;100.00
21357;BME280;10836;53.068;18.234;2023-03-14T00:59:31;98912.97;;;10.63;100.00
21357;BME280;10836;53.068;18.234;2023-03-14T01:01:58;98908.00;;;10.65;100.00
21357;BME280;10836;53.068;18.234;2023-03-14T01:04:25;98901.56;;;10.61;100.00
21357;BME280;10836;53.068;18.234;2023-03-14T01:06:54;98905.56;;;10.55;100.00
21357;BME280;10836;53.068;18.234;2023-03-14T01:09:21;98892.41;;;10.57;100.00
21357;BME280;10836;53.068;18.234;2023-03-14T01:11:48;98894.66;;;10.55;100.00
21357;BME280;10836;53.068;18.234;2023-03-14T01:14:16;98890.47;;;10.49;100.00
21357;BME280;10836;53.068;18.234;2023-03-14T01:16:43;98885.19;;;10.53;100.00
21357;BME280;10836;53.068;18.234;2023-03-14T01:19:10;98888.22;;;10.51;100.00
21357;BME280;10836;53.068;18.234;2023-03-14T01:21:37;98879.53;;;10.49;100.00
21357;BME280;10836;53.068;18.234;2023-03-14T01:24:05;98889.66;;;10.49;100.00
21357;BME280;10836;53.068;18.234;2023-03-14T01:26:34;98869.91;;;10.43;100.00
21357;BME280;10836;53.068;18.234;2023-03-14T01:29:04;98874.72;;;10.46;100.00
21357;BME280;10836;53.068;18.234;2023-03-14T01:31:33;98879.88;;;10.39;100.00
21357;BME280;10836;53.068;18.234;2023-03-14T01:34:00;98877.59;;;10.32;100.00
21357;BME280;10836;53.068;18.234;2023-03-14T01:36:27;98877.44;;;10.38;100.00
21357;BME280;10836;53.068;18.234;2023-03-14T01:38:58;98878.53;;;10.28;100.00
21357;BME280;10836;53.068;18.234;2023-03-14T01:41:26;98871.47;;;10.27;100.00
21357;BME280;10836;53.068;18.234;2023-03-14T01:43:55;98877.72;;;10.27;100.00
21357;BME280;10836;53.068;18.234;2023-03-14T01:46:34;98873.06;;;10.28;100.00
21357;BME280;10836;53.068;18.234;2023-03-14T01:49:22;98861.41;;;10.36;100.00
21357;BME280;10836;53.068;18.234;2023-03-14T01:54:55;98863.50;;;10.39;100.00
21357;BME280;10836;53.068;18.234;2023-03-14T01:57:32;98858.34;;;10.46;100.00
21357;BME280;10836;53.068;18.234;2023-03-14T02:00:09;98841.50;;;10.44;100.00
21357;BME280;10836;53.068;18.234;2023-03-14T02:02:43;98840.41;;;10.62;100.00
21357;BME280;10836;53.068;18.234;2023-03-14T02:05:23;98827.88;;;10.61;100.00
21357;BME280;10836;53.068;18.234;2023-03-14T02:07:58;98831.59;;;10.65;100.00
21357;BME280;10836;53.068;18.234;2023-03-14T02:10:34;98819.72;;;10.70;100.00
21357;BME280;10836;53.068;18.234;2023-03-14T02:13:04;98818.28;;;10.73;100.00
21357;BME280;10836;53.068;18.234;2023-03-14T02:16:04;98800.59;;;10.79;100.00
21357;BME280;10836;53.068;18.234;2023-03-14T02:18:47;98800.13;;;10.77;100.00
21357;BME280;10836;53.068;18.234;2023-03-14T02:21:38;98807.50;;;10.76;100.00
21357;BME280;10836;53.068;18.234;2023-03-14T02:24:14;98809.75;;;10.83;100.00
21357;BME280;10836;53.068;18.234;2023-03-14T02:29:34;98806.69;;;11.10;100.00
21357;BME280;10836;53.068;18.234;2023-03-14T02:32:06;98797.22;;;11.08;100.00
21357;BME280;10836;53.068;18.234;2023-03-14T02:34:34;98805.53;;;11.28;100.00
21357;BME280;10836;53.068;18.234;2023-03-14T02:37:02;98798.91;;;11.38;100.00
21357;BME280;10836;53.068;18.234;2023-03-14T02:39:37;98802.13;;;11.49;100.00
21357;BME280;10836;53.068;18.234;2023-03-14T02:42:06;98804.84;;;11.57;100.00
21357;BME280;10836;53.068;18.234;2023-03-14T02:44:33;98806.41;;;11.67;100.00
21357;BME280;10836;53.068;18.234;2023-03-14T02:47:04;98804.34;;;11.64;100.00
21357;BME280;10836;53.068;18.234;2023-03-14T02:49:32;98799.81;;;11.68;100.00
21357;BME280;10836;53.068;18.234;2023-03-14T02:52:00;98812.63;;;11.76;100.00
21357;BME280;10836;53.068;18.234;2023-03-14T02:54:27;98812.47;;;11.73;100.00
21357;BME280;10836;53.068;18.234;2023-03-14T02:56:54;98817.16;;;11.72;100.00
21357;BME280;10836;53.068;18.234;2023-03-14T02:59:21;98818.63;;;11.70;100.00
21357;BME280;10836;53.068;18.234;2023-03-14T03:01:52;98812.69;;;11.68;100.00
21357;BME280;10836;53.068;18.234;2023-03-14T03:04:19;98810.44;;;11.61;100.00
21357;BME280;10836;53.068;18.234;2023-03-14T03:06:46;98819.13;;;11.63;100.00
21357;BME280;10836;53.068;18.234;2023-03-14T03:09:16;98815.28;;;11.64;100.00
21357;BME280;10836;53.068;18.234;2023-03-14T03:11:42;98826.19;;;11.64;100.00
21357;BME280;10836;53.068;18.234;2023-03-14T03:14:15;98833.13;;;11.61;100.00
21357;BME280;10836;53.068;18.234;2023-03-14T03:16:42;98824.63;;;11.54;100.00
21357;BME280;10836;53.068;18.234;2023-03-14T03:19:09;98832.50;;;11.56;100.00
21357;BME280;10836;53.068;18.234;2023-03-14T03:21:36;98832.50;;;11.56;100.00
21357;BME280;10836;53.068;18.234;2023-03-14T03:24:03;98829.59;;;11.52;100.00
21357;BME280;10836;53.068;18.234;2023-03-14T03:26:34;98821.56;;;11.47;100.00
21357;BME280;10836;53.068;18.234;2023-03-14T03:29:03;98842.63;;;11.47;100.00
21357;BME280;10836;53.068;18.234;2023-03-14T03:31:30;98839.59;;;11.40;100.00
21357;BME280;10836;53.068;18.234;2023-03-14T03:33:57;98837.19;;;11.38;100.00
21357;BME280;10836;53.068;18.234;2023-03-14T03:36:25;98821.91;;;11.37;100.00
21357;BME280;10836;53.068;18.234;2023-03-14T03:38:52;98805.19;;;11.30;100.00
21357;BME280;10836;53.068;18.234;2023-03-14T03:41:20;98802.78;;;11.28;100.00
21357;BME280;10836;53.068;18.234;2023-03-14T03:43:49;98804.41;;;11.29;100.00
21357;BME280;10836;53.068;18.234;2023-03-14T03:46:17;98806.03;;;11.22;100.00
21357;BME280;10836;53.068;18.234;2023-03-14T03:48:44;98811.19;;;11.15;100.00
21357;BME280;10836;53.068;18.234;2023-03-14T03:51:13;98805.88;;;11.18;100.00
21357;BME280;10836;53.068;18.234;2023-03-14T03:53:41;98800.59;;;11.13;100.00
21357;BME280;10836;53.068;18.234;2023-03-14T03:56:11;98800.25;;;11.06;100.00
21357;BME280;10836;53.068;18.234;2023-03-14T03:58:39;98791.75;;;10.99;100.00
21357;BME280;10836;53.068;18.234;2023-03-14T04:01:06;98798.97;;;10.95;100.00
21357;BME280;10836;53.068;18.234;2023-03-14T04:03:35;98796.13;;;10.83;100.00
21357;BME280;10836;53.068;18.234;2023-03-14T04:06:04;98790.97;;;10.73;100.00
21357;BME280;10836;53.068;18.234;2023-03-14T04:08:34;98770.25;;;10.72;100.00
21357;BME280;10836;53.068;18.234;2023-03-14T04:11:01;98773.28;;;10.61;100.00
21357;BME280;10836;53.068;18.234;2023-03-14T04:13:47;98751.31;;;10.58;100.00
21357;BME280;10836;53.068;18.234;2023-03-14T04:16:17;98745.19;;;10.52;100.00
21357;BME280;10836;53.068;18.234;2023-03-14T04:18:45;98733.78;;;10.50;100.00
21357;BME280;10836;53.068;18.234;2023-03-14T04:21:12;98736.69;;;10.45;100.00
21357;BME280;10836;53.068;18.234;2023-03-14T04:23:45;98737.66;;;10.32;100.00
21357;BME280;10836;53.068;18.234;2023-03-14T04:26:14;98744.72;;;10.33;100.00
21357;BME280;10836;53.068;18.234;2023-03-14T04:28:41;98747.75;;;10.23;100.00
21357;BME280;10836;53.068;18.234;2023-03-14T04:31:17;98749.34;;;10.24;100.00
21357;BME280;10836;53.068;18.234;2023-03-14T04:33:46;98745.13;;;10.09;100.00
21357;BME280;10836;53.068;18.234;2023-03-14T04:36:16;98741.44;;;10.14;100.00
21357;BME280;10836;53.068;18.234;2023-03-14T04:38:44;98731.66;;;10.13;100.00
21357;BME280;10836;53.068;18.234;2023-03-14T04:41:12;98730.19;;;10.07;100.00
21357;BME280;10836;53.068;18.234;2023-03-14T04:43:39;98718.31;;;10.02;100.00
21357;BME280;10836;53.068;18.234;2023-03-14T04:46:09;98710.75;;;9.99;100.00
21357;BME280;10836;53.068;18.234;2023-03-14T04:48:38;98701.78;;;9.99;100.00
21357;BME280;10836;53.068;18.234;2023-03-14T04:51:06;98718.94;;;9.99;100.00
21357;BME280;10836;53.068;18.234;2023-03-14T04:53:34;98710.75;;;9.99;100.00
21357;BME280;10836;53.068;18.234;2023-03-14T04:56:04;98713.66;;;9.94;100.00
21357;BME280;10836;53.068;18.234;2023-03-14T04:58:36;98718.63;;;9.92;100.00
21357;BME280;10836;53.068;18.234;2023-03-14T05:01:04;98716.69;;;9.84;100.00
21357;BME280;10836;53.068;18.234;2023-03-14T05:03:50;98715.41;;;9.90;100.00
21357;BME280;10836;53.068;18.234;2023-03-14T05:06:17;98734.50;;;9.90;100.00
21357;BME280;10836;53.068;18.234;2023-03-14T05:09:01;98732.91;;;9.89;100.00
21357;BME280;10836;53.068;18.234;2023-03-14T05:11:54;98725.34;;;9.86;100.00
21357;BME280;10836;53.068;18.234;2023-03-14T05:14:40;98706.41;;;9.81;100.00
21357;BME280;10836;53.068;18.234;2023-03-14T05:17:20;98691.19;;;9.80;100.00
21357;BME280;10836;53.068;18.234;2023-03-14T05:20:10;98715.84;;;9.75;100.00
21357;BME280;10836;53.068;18.234;2023-03-14T05:22:57;98708.94;;;9.69;100.00
21357;BME280;10836;53.068;18.234;2023-03-14T05:25:43;98722.97;;;9.54;100.00
21357;BME280;10836;53.068;18.234;2023-03-14T05:28:28;98735.47;;;9.55;100.00
21357;BME280;10836;53.068;18.234;2023-03-14T05:31:09;98722.66;;;9.47;100.00
21357;BME280;10836;53.068;18.234;2023-03-14T05:33:55;98710.94;;;9.46;100.00
21357;BME280;10836;53.068;18.234;2023-03-14T05:36:41;98705.81;;;9.45;100.00
21357;BME280;10836;53.068;18.234;2023-03-14T05:39:18;98714.97;;;9.49;100.00
21357;BME280;10836;53.068;18.234;2023-03-14T05:41:58;98695.41;;;9.47;100.00
21357;BME280;10836;53.068;18.234;2023-03-14T05:45:04;98705.69;;;9.50;100.00
21357;BME280;10836;53.068;18.234;2023-03-14T05:47:50;98710.63;;;9.48;100.00
21357;BME280;10836;53.068;18.234;2023-03-14T05:50:35;98705.94;;;9.40;100.00
21357;BME280;10836;53.068;18.234;2023-03-14T05:53:22;98707.28;;;9.51;100.00
21357;BME280;10836;53.068;18.234;2023-03-14T05:56:08;98688.84;;;9.56;100.00
21357;BME280;10836;53.068;18.234;2023-03-14T05:58:54;98695.72;;;9.54;100.00
21357;BME280;10836;53.068;18.234;2023-03-14T06:01:27;98720.47;;;9.66;100.00
21357;BME280;10836;53.068;18.234;2023-03-14T06:04:08;98712.19;;;9.80;100.00
21357;BME280;10836;53.068;18.234;2023-03-14T06:06:35;98722.47;;;9.91;100.00
21357;BME280;10836;53.068;18.234;2023-03-14T06:09:02;98713.81;;;9.89;100.00
21357;BME280;10836;53.068;18.234;2023-03-14T06:11:32;98713.00;;;9.89;100.00
21357;BME280;10836;53.068;18.234;2023-03-14T06:13:59;98715.72;;;9.80;100.00
21357;BME280;10836;53.068;18.234;2023-03-14T06:16:26;98715.06;;;9.83;100.00
21357;BME280;10836;53.068;18.234;2023-03-14T06:18:53;98729.72;;;9.96;100.00
21357;BME280;10836;53.068;18.234;2023-03-14T06:21:22;98731.16;;;9.93;100.00
21357;BME280;10836;53.068;18.234;2023-03-14T06:23:49;98733.03;;;9.84;100.00
21357;BME280;10836;53.068;18.234;2023-03-14T06:26:17;98704.81;;;9.97;100.00
21357;BME280;10836;53.068;18.234;2023-03-14T06:28:44;98708.19;;;9.86;100.00
21357;BME280;10836;53.068;18.234;2023-03-14T06:31:11;98701.22;;;10.37;100.00
21357;BME280;10836;53.068;18.234;2023-03-14T06:33:48;98719.34;;;10.41;100.00
21357;BME280;10836;53.068;18.234;2023-03-14T06:36:15;98721.91;;;10.29;100.00
21357;BME280;10836;53.068;18.234;2023-03-14T06:38:45;98725.28;;;10.26;100.00
21357;BME280;10836;53.068;18.234;2023-03-14T06:41:12;98721.44;;;10.36;100.00
21357;BME280;10836;53.068;18.234;2023-03-14T06:43:42;98708.75;;;10.31;100.00
21357;BME280;10836;53.068;18.234;2023-03-14T06:46:09;98722.56;;;10.43;100.00
21357;BME280;10836;53.068;18.234;2023-03-14T06:48:38;98722.56;;;10.60;100.00
21357;BME280;10836;53.068;18.234;2023-03-14T06:51:06;98722.72;;;10.55;100.00
21357;BME280;10836;53.068;18.234;2023-03-14T06:53:34;98722.09;;;10.32;100.00
21357;BME280;10836;53.068;18.234;2023-03-14T06:56:02;98724.16;;;10.44;100.00
21357;BME280;10836;53.068;18.234;2023-03-14T06:58:31;98734.91;;;10.41;100.00
21357;BME280;10836;53.068;18.234;2023-03-14T07:01:00;98732.38;;;10.36;100.00
21357;BME280;10836;53.068;18.234;2023-03-14T07:03:33;98741.28;;;10.19;100.00
21357;BME280;10836;53.068;18.234;2023-03-14T07:06:00;98749.13;;;10.12;100.00
21357;BME280;10836;53.068;18.234;2023-03-14T07:08:27;98755.22;;;10.09;100.00
21357;BME280;10836;53.068;18.234;2023-03-14T07:10:56;98765.16;;;10.05;100.00
21357;BME280;10836;53.068;18.234;2023-03-14T07:13:24;98758.91;;;10.04;100.00
21357;BME280;10836;53.068;18.234;2023-03-14T07:15:59;98751.34;;;9.92;100.00
21357;BME280;10836;53.068;18.234;2023-03-14T07:18:27;98744.13;;;9.96;100.00
21357;BME280;10836;53.068;18.234;2023-03-14T07:20:55;98741.44;;;10.14;100.00
21357;BME280;10836;53.068;18.234;2023-03-14T07:23:23;98730.06;;;11.07;100.00
21357;BME280;10836;53.068;18.234;2023-03-14T07:25:52;98730.75;;;11.88;100.00
21357;BME280;10836;53.068;18.234;2023-03-14T07:28:23;98724.84;;;12.07;98.75
21357;BME280;10836;53.068;18.234;2023-03-14T07:30:56;98738.78;;;11.47;100.00
21357;BME280;10836;53.068;18.234;2023-03-14T07:33:28;98740.00;;;11.11;100.00
21357;BME280;10836;53.068;18.234;2023-03-14T07:35:55;98732.47;;;11.08;100.00
21357;BME280;10836;53.068;18.234;2023-03-14T07:38:22;98744.19;;;11.09;100.00
21357;BME280;10836;53.068;18.234;2023-03-14T07:41:08;98745.97;;;10.96;100.00
21357;BME280;10836;53.068;18.234;2023-03-14T07:43:40;98738.94;;;10.78;100.00
21357;BME280;10836;53.068;18.234;2023-03-14T07:46:07;98742.16;;;10.80;100.00
21357;BME280;10836;53.068;18.234;2023-03-14T07:48:34;98735.25;;;10.74;100.00
21357;BME280;10836;53.068;18.234;2023-03-14T07:51:01;98734.13;;;10.75;100.00
21357;BME280;10836;53.068;18.234;2023-03-14T07:53:31;98717.25;;;10.81;100.00
21357;BME280;10836;53.068;18.234;2023-03-14T07:55:59;98714.84;;;10.80;100.00
21357;BME280;10836;53.068;18.234;2023-03-14T07:58:26;98725.56;;;10.85;100.00
21357;BME280;10836;53.068;18.234;2023-03-14T08:00:53;98721.41;;;10.87;100.00
21357;BME280;10836;53.068;18.234;2023-03-14T08:03:20;98716.47;;;10.81;100.00
21357;BME280;10836;53.068;18.234;2023-03-14T08:05:48;98710.47;;;10.87;100.00
21357;BME280;10836;53.068;18.234;2023-03-14T08:08:17;98705.19;;;10.91;100.00
21357;BME280;10836;53.068;18.234;2023-03-14T08:10:45;98705.50;;;10.98;100.00
21357;BME280;10836;53.068;18.234;2023-03-14T08:13:13;98696.97;;;10.99;100.00
21357;BME280;10836;53.068;18.234;2023-03-14T08:15:40;98699.84;;;11.12;100.00
21357;BME280;10836;53.068;18.234;2023-03-14T08:18:07;98699.69;;;11.08;100.00
21357;BME280;10836;53.068;18.234;2023-03-14T08:20:35;98703.19;;;11.17;100.00
21357;BME280;10836;53.068;18.234;2023-03-14T08:23:03;98696.13;;;11.16;100.00
21357;BME280;10836;53.068;18.234;2023-03-14T08:25:30;98681.34;;;11.17;100.00
21357;BME280;10836;53.068;18.234;2023-03-14T08:27:57;98689.84;;;11.24;100.00
21357;BME280;10836;53.068;18.234;2023-03-14T08:30:24;98695.09;;;11.29;100.00
21357;BME280;10836;53.068;18.234;2023-03-14T08:32:52;98700.44;;;11.26;100.00
21357;BME280;10836;53.068;18.234;2023-03-14T08:35:20;98710.50;;;11.43;100.00
21357;BME280;10836;53.068;18.234;2023-03-14T08:37:47;98687.69;;;11.39;100.00
21357;BME280;10836;53.068;18.234;2023-03-14T08:40:14;98696.34;;;11.41;100.00
21357;BME280;10836;53.068;18.234;2023-03-14T08:42:45;98695.25;;;11.71;100.00
21357;BME280;10836;53.068;18.234;2023-03-14T08:45:14;98690.16;;;11.61;100.00
21357;BME280;10836;53.068;18.234;2023-03-14T08:47:44;98692.72;;;11.66;100.00
21357;BME280;10836;53.068;18.234;2023-03-14T08:50:11;98697.53;;;11.69;100.00
21357;BME280;10836;53.068;18.234;2023-03-14T08:52:42;98695.84;;;11.85;100.00
21357;BME280;10836;53.068;18.234;2023-03-14T08:55:10;98710.84;;;11.79;100.00
21357;BME280;10836;53.068;18.234;2023-03-14T08:57:37;98711.47;;;11.76;100.00
21357;BME280;10836;53.068;18.234;2023-03-14T09:00:05;98719.84;;;11.71;100.00
21357;BME280;10836;53.068;18.234;2023-03-14T09:02:37;98732.25;;;11.77;100.00
21357;BME280;10836;53.068;18.234;2023-03-14T09:05:05;98740.91;;;11.79;100.00
21357;BME280;10836;53.068;18.234;2023-03-14T09:07:32;98741.50;;;11.93;100.00
21357;BME280;10836;53.068;18.234;2023-03-14T09:09:59;98745.50;;;11.96;100.00
21357;BME280;10836;53.068;18.234;2023-03-14T09:12:26;98730.47;;;12.11;100.00
21357;BME280;10836;53.068;18.234;2023-03-14T09:14:53;98730.78;;;12.09;100.00
21357;BME280;10836;53.068;18.234;2023-03-14T09:17:20;98725.72;;;12.20;100.00
21357;BME280;10836;53.068;18.234;2023-03-14T09:19:47;98733.66;;;12.13;100.00
21357;BME280;10836;53.068;18.234;2023-03-14T09:22:14;98712.16;;;12.03;100.00
21357;BME280;10836;53.068;18.234;2023-03-14T09:24:41;98711.03;;;12.04;100.00
21357;BME280;10836;53.068;18.234;2023-03-14T09:27:09;98715.44;;;12.17;100.00
21357;BME280;10836;53.068;18.234;2023-03-14T09:29:35;98709.75;;;12.22;100.00
21357;BME280;10836;53.068;18.234;2023-03-14T09:32:02;98712.97;;;12.24;100.00
21357;BME280;10836;53.068;18.234;2023-03-14T09:34:30;98709.38;;;12.32;100.00
21357;BME280;10836;53.068;18.234;2023-03-14T09:36:57;98714.28;;;12.18;100.00
21357;BME280;10836;53.068;18.234;2023-03-14T09:39:24;98728.16;;;12.42;100.00
21357;BME280;10836;53.068;18.234;2023-03-14T09:41:52;98720.19;;;12.49;100.00
21357;BME280;10836;53.068;18.234;2023-03-14T09:44:26;98715.22;;;12.63;100.00
21357;BME280;10836;53.068;18.234;2023-03-14T09:46:58;98718.84;;;12.76;99.68
21357;BME280;10836;53.068;18.234;2023-03-14T09:49:33;98728.31;;;12.79;100.00
21357;BME280;10836;53.068;18.234;2023-03-14T09:52:08;98728.44;;;12.82;100.00
21357;BME280;10836;53.068;18.234;2023-03-14T09:57:16;98728.31;;;13.93;94.62
21357;BME280;10836;53.068;18.234;2023-03-14T09:59:49;98718.97;;;13.70;93.78
21357;BME280;10836;53.068;18.234;2023-03-14T10:02:22;98709.97;;;14.46;92.24
21357;BME280;10836;53.068;18.234;2023-03-14T10:04:52;98704.22;;;14.63;89.70
21357;BME280;10836;53.068;18.234;2023-03-14T10:07:31;98710.44;;;14.36;92.35
21357;BME280;10836;53.068;18.234;2023-03-14T10:09:59;98712.38;;;14.36;91.75
21357;BME280;10836;53.068;18.234;2023-03-14T10:12:32;98709.97;;;14.58;89.27
21357;BME280;10836;53.068;18.234;2023-03-14T10:15:07;98724.06;;;14.45;90.64
21357;BME280;10836;53.068;18.234;2023-03-14T10:17:44;98721.00;;;13.61;92.95
21357;BME280;10836;53.068;18.234;2023-03-14T10:20:37;98719.66;;;13.43;94.92
21357;BME280;10836;53.068;18.234;2023-03-14T10:25:39;98722.03;;;13.11;95.91
21357;BME280;10836;53.068;18.234;2023-03-14T10:31:06;98713.97;;;12.61;99.59
21357;BME280;10836;53.068;18.234;2023-03-14T10:33:36;98715.69;;;12.65;100.00
21357;BME280;10836;53.068;18.234;2023-03-14T10:36:24;98715.28;;;12.76;99.63
21357;BME280;10836;53.068;18.234;2023-03-14T10:41:56;98710.97;;;12.75;100.00
21357;BME280;10836;53.068;18.234;2023-03-14T10:44:28;98711.81;;;12.66;98.83
21357;BME280;10836;53.068;18.234;2023-03-14T10:47:00;98713.91;;;12.70;100.00
21357;BME280;10836;53.068;18.234;2023-03-14T10:49:33;98716.44;;;12.75;99.62
21357;BME280;10836;53.068;18.234;2023-03-14T10:52:48;98713.03;;;12.78;99.67
21357;BME280;10836;53.068;18.234;2023-03-14T10:55:08;98702.28;;;12.73;99.45
21357;BME280;10836;53.068;18.234;2023-03-14T10:57:39;98711.69;;;12.63;99.43
21357;BME280;10836;53.068;18.234;2023-03-14T11:00:20;98712.47;;;12.51;99.27
21357;BME280;10836;53.068;18.234;2023-03-14T11:03:10;98713.78;;;12.45;100.00
21357;BME280;10836;53.068;18.234;2023-03-14T11:05:56;98717.94;;;12.51;100.00
21357;BME280;10836;53.068;18.234;2023-03-14T11:08:30;98709.63;;;12.60;99.26
21357;BME280;10836;53.068;18.234;2023-03-14T11:11:20;98718.91;;;12.68;98.88
21357;BME280;10836;53.068;18.234;2023-03-14T11:13:57;98717.56;;;12.74;99.62
21357;BME280;10836;53.068;18.234;2023-03-14T11:19:14;98711.78;;;12.54;98.64
21357;BME280;10836;53.068;18.234;2023-03-14T11:25:18;98718.69;;;12.73;96.58
21357;BME280;10836;53.068;18.234;2023-03-14T11:27:55;98729.66;;;12.73;96.90
21357;BME280;10836;53.068;18.234;2023-03-14T11:30:50;98724.19;;;12.73;97.46
21357;BME280;10836;53.068;18.234;2023-03-14T11:33:25;98729.25;;;12.83;97.02
21357;BME280;10836;53.068;18.234;2023-03-14T11:36:02;98724.44;;;12.80;97.08
21357;BME280;10836;53.068;18.234;2023-03-14T11:38:46;98735.88;;;12.82;96.33
21357;BME280;10836;53.068;18.234;2023-03-14T11:43:48;98735.00;;;12.90;96.29
21357;BME280;10836;53.068;18.234;2023-03-14T11:49:31;98724.03;;;12.90;96.23
21357;BME280;10836;53.068;18.234;2023-03-14T11:52:03;98726.56;;;12.95;95.81
21357;BME280;10836;53.068;18.234;2023-03-14T11:54:43;98727.97;;;13.13;95.59
21357;BME280;10836;53.068;18.234;2023-03-14T11:57:18;98712.50;;;13.17;93.55
21357;BME280;10836;53.068;18.234;2023-03-14T11:59:56;98722.16;;;13.15;93.53
21357;BME280;10836;53.068;18.234;2023-03-14T12:02:32;98724.09;;;13.14;95.07
21357;BME280;10836;53.068;18.234;2023-03-14T12:05:43;98721.31;;;13.23;93.95
21357;BME280;10836;53.068;18.234;2023-03-14T12:08:19;98712.00;;;13.15;92.93
21357;BME280;10836;53.068;18.234;2023-03-14T12:10:59;98715.06;;;13.35;92.90
21357;BME280;10836;53.068;18.234;2023-03-14T12:13:33;98721.44;;;13.26;92.33
21357;BME280;10836;53.068;18.234;2023-03-14T12:16:35;98701.91;;;13.28;92.99
21357;BME280;10836;53.068;18.234;2023-03-14T12:19:30;98701.34;;;13.59;91.33
21357;BME280;10836;53.068;18.234;2023-03-14T12:24:36;98686.47;;;14.09;89.18
21357;BME280;10836;53.068;18.234;2023-03-14T12:27:05;98708.00;;;13.70;89.25
21357;BME280;10836;53.068;18.234;2023-03-14T12:29:59;98684.81;;;13.80;89.61
21357;BME280;10836;53.068;18.234;2023-03-14T12:32:30;98662.97;;;13.83;88.55
21357;BME280;10836;53.068;18.234;2023-03-14T12:35:23;98690.19;;;13.76;89.64
21357;BME280;10836;53.068;18.234;2023-03-14T12:37:55;98699.63;;;13.54;90.35
21357;BME280;10836;53.068;18.234;2023-03-14T12:40:33;98709.13;;;13.57;91.65
21357;BME280;10836;53.068;18.234;2023-03-14T12:43:04;98685.72;;;13.59;90.22
21357;BME280;10836;53.068;18.234;2023-03-14T12:45:33;98697.72;;;13.43;90.86
21357;BME280;10836;53.068;18.234;2023-03-14T12:48:22;98683.19;;;13.54;91.13
21357;BME280;10836;53.068;18.234;2023-03-14T12:51:01;98681.25;;;13.43;90.50
21357;BME280;10836;53.068;18.234;2023-03-14T12:56:37;98673.69;;;13.52;91.98
21357;BME280;10836;53.068;18.234;2023-03-14T13:02:20;98670.28;;;13.30;92.26
21357;BME280;10836;53.068;18.234;2023-03-14T13:04:51;98680.53;;;13.21;92.32
21357;BME280;10836;53.068;18.234;2023-03-14T13:12:29;98674.28;;;13.00;93.77
21357;BME280;10836;53.068;18.234;2023-03-14T13:14:59;98673.59;;;13.03;94.21
21357;BME280;10836;53.068;18.234;2023-03-14T13:17:33;98667.91;;;13.08;94.48
21357;BME280;10836;53.068;18.234;2023-03-14T13:20:11;98667.06;;;13.89;90.30
21357;BME280;10836;53.068;18.234;2023-03-14T13:22:46;98654.00;;;14.11;89.51
21357;BME280;10836;53.068;18.234;2023-03-14T13:25:13;98665.47;;;13.88;88.29
21357;BME280;10836;53.068;18.234;2023-03-14T13:27:41;98673.03;;;13.55;90.61
21357;BME280;10836;53.068;18.234;2023-03-14T13:30:20;98674.84;;;13.39;91.69
21357;BME280;10836;53.068;18.234;2023-03-14T13:32:49;98679.84;;;13.24;92.63
21357;BME280;10836;53.068;18.234;2023-03-14T13:35:22;98673.44;;;13.20;92.83
21357;BME280;10836;53.068;18.234;2023-03-14T13:37:55;98661.34;;;13.21;91.16
21357;BME280;10836;53.068;18.234;2023-03-14T13:40:37;98667.34;;;13.15;91.31
21357;BME280;10836;53.068;18.234;2023-03-14T13:46:33;98678.66;;;13.13;91.44
21357;BME280;10836;53.068;18.234;2023-03-14T13:48:43;98676.38;;;13.15;91.70
21357;BME280;10836;53.068;18.234;2023-03-14T13:51:13;98684.13;;;13.13;92.20
21357;BME280;10836;53.068;18.234;2023-03-14T13:53:46;98682.28;;;13.05;91.95